createdAt,value
2023-02-04T00:00:43.504Z,8.20
2023-02-04T00:03:11.758Z,8.20
2023-02-04T00:05:39.906Z,8.20
2023-02-04T00:08:08.186Z,8.20
2023-02-04T00:10:37.748Z,8.20
2023-02-04T00:13:07.677Z,8.20
2023-02-04T00:15:36.248Z,8.20
2023-02-04T00:18:05.846Z,8.20
2023-02-04T00:20:34.044Z,8.20
2023-02-04T00:23:02.318Z,8.20
2023-02-04T00:25:30.658Z,8.20
2023-02-04T00:27:58.852Z,8.20
2023-02-04T00:30:28.616Z,8.20
2023-02-04T00:32:56.978Z,8.20
2023-02-04T00:35:26.143Z,8.20
2023-02-04T00:37:55.194Z,8.20
2023-02-04T00:40:23.490Z,8.10
2023-02-04T00:42:51.695Z,8.20
2023-02-04T00:45:20.202Z,8.10
2023-02-04T00:47:49.834Z,8.20
2023-02-04T00:50:18.626Z,8.10
2023-02-04T00:52:46.817Z,8.10
2023-02-04T00:55:17.123Z,8.10
2023-02-04T00:57:47.015Z,8.10
2023-02-04T01:00:17.013Z,8.10
2023-02-04T01:02:45.722Z,8.10
2023-02-04T01:05:16.454Z,8.10
2023-02-04T01:07:46.242Z,8.00
2023-02-04T01:10:16.198Z,8.00
2023-02-04T01:12:45.321Z,8.00
2023-02-04T01:15:14.092Z,8.10
2023-02-04T01:17:43.057Z,8.00
2023-02-04T01:20:12.943Z,8.00
2023-02-04T01:22:42.627Z,8.00
2023-02-04T01:25:11.132Z,8.00
2023-02-04T01:27:43.075Z,8.00
2023-02-04T01:30:14.582Z,8.00
2023-02-04T01:32:43.247Z,8.00
2023-02-04T01:35:11.659Z,8.00
2023-02-04T01:37:40.033Z,8.00
2023-02-04T01:40:12.320Z,8.00
2023-02-04T01:42:41.181Z,8.00
2023-02-04T01:45:11.080Z,7.90
2023-02-04T01:47:40.616Z,7.90
2023-02-04T01:50:11.888Z,7.90
2023-02-04T01:52:40.941Z,8.00
2023-02-04T01:55:16.574Z,8.00
2023-02-04T01:57:46.872Z,8.00
2023-02-04T02:00:19.387Z,8.00
2023-02-04T02:02:52.447Z,8.00
2023-02-04T02:05:25.517Z,8.00
2023-02-04T02:07:57.195Z,8.00
2023-02-04T02:10:27.230Z,8.00
2023-02-04T02:12:56.339Z,8.00
2023-02-04T02:15:25.379Z,8.10
2023-02-04T02:17:54.398Z,8.00
2023-02-04T02:20:25.808Z,8.10
2023-02-04T02:23:05.534Z,8.00
2023-02-04T02:25:35.150Z,8.10
2023-02-04T02:28:12.898Z,8.10
2023-02-04T02:30:41.741Z,8.10
2023-02-04T02:33:10.041Z,8.10
2023-02-04T02:35:38.840Z,8.10
2023-02-04T02:38:07.243Z,8.00
2023-02-04T02:40:37.067Z,8.00
2023-02-04T02:43:06.114Z,8.00
2023-02-04T02:45:35.248Z,8.10
2023-02-04T02:48:04.245Z,8.10
2023-02-04T02:50:34.160Z,8.10
2023-02-04T02:53:04.345Z,8.10
2023-02-04T02:55:33.571Z,8.10
2023-02-04T02:58:06.803Z,8.10
2023-02-04T03:00:35.211Z,8.00
2023-02-04T03:03:10.740Z,8.00
2023-02-04T03:05:43.268Z,8.00
2023-02-04T03:08:14.048Z,8.00
2023-02-04T03:10:42.710Z,8.00
2023-02-04T03:13:13.815Z,8.00
2023-02-04T03:15:44.216Z,8.00
2023-02-04T03:18:13.828Z,8.00
2023-02-04T03:20:42.571Z,8.00
2023-02-04T03:23:12.262Z,8.00
2023-02-04T03:25:42.601Z,8.00
2023-02-04T03:28:12.693Z,8.00
2023-02-04T03:30:41.031Z,8.00
2023-02-04T03:33:09.427Z,8.00
2023-02-04T03:35:37.649Z,8.00
2023-02-04T03:38:05.851Z,8.00
2023-02-04T03:40:34.011Z,7.90
2023-02-04T03:43:02.361Z,7.90
2023-02-04T03:45:40.547Z,7.90
2023-02-04T03:48:12.263Z,7.90
2023-02-04T03:50:40.523Z,7.90
2023-02-04T03:53:08.991Z,7.90
2023-02-04T03:55:37.288Z,7.90
2023-02-04T03:58:06.060Z,7.90
2023-02-04T04:00:35.656Z,7.90
2023-02-04T04:03:04.055Z,7.90
2023-02-04T04:05:32.582Z,7.80
2023-02-04T04:08:00.780Z,7.80
2023-02-04T04:10:29.968Z,7.80
2023-02-04T04:12:58.540Z,7.70
2023-02-04T04:15:26.812Z,7.70
2023-02-04T04:17:56.354Z,7.70
2023-02-04T04:20:25.441Z,7.60
2023-02-04T04:22:53.786Z,7.60
2023-02-04T04:25:27.172Z,7.60
2023-02-04T04:27:55.440Z,7.50
2023-02-04T04:30:23.561Z,7.50
2023-02-04T04:32:51.780Z,7.50
2023-02-04T04:35:21.420Z,7.50
2023-02-04T04:37:49.672Z,7.50
2023-02-04T04:40:18.057Z,7.40
2023-02-04T04:42:46.322Z,7.40
2023-02-04T04:45:14.578Z,7.40
2023-02-04T04:47:42.799Z,7.40
2023-02-04T04:50:11.555Z,7.40
2023-02-04T04:52:41.261Z,7.40
2023-02-04T04:55:10.356Z,7.40
2023-02-04T04:57:38.537Z,7.40
2023-02-04T05:00:09.425Z,7.40
2023-02-04T05:02:37.641Z,7.40
2023-02-04T05:05:06.386Z,7.30
2023-02-04T05:07:34.836Z,7.30
2023-02-04T05:10:05.749Z,7.30
2023-02-04T05:12:33.976Z,7.30
2023-02-04T05:15:02.153Z,7.20
2023-02-04T05:17:30.724Z,7.20
2023-02-04T05:19:59.054Z,7.20
2023-02-04T05:22:27.275Z,7.10
2023-02-04T05:24:55.460Z,7.10
2023-02-04T05:27:25.056Z,7.10
2023-02-04T05:29:53.248Z,7.10
2023-02-04T05:32:21.543Z,7.10
2023-02-04T05:34:49.781Z,7.10
2023-02-04T05:37:20.963Z,7.10
2023-02-04T05:39:49.287Z,7.10
2023-02-04T05:42:17.519Z,7.10
2023-02-04T05:44:47.119Z,7.10
2023-02-04T05:47:15.326Z,7.10
2023-02-04T05:49:43.598Z,7.10
2023-02-04T05:52:14.428Z,7.10
2023-02-04T05:54:42.669Z,7.10
2023-02-04T05:57:10.997Z,7.10
2023-02-04T05:59:39.298Z,7.00
2023-02-04T06:02:09.015Z,7.00
2023-02-04T06:04:37.164Z,7.00
2023-02-04T06:07:05.425Z,7.00
2023-02-04T06:09:33.840Z,7.00
2023-02-04T06:12:02.155Z,7.00
2023-02-04T06:14:30.336Z,6.90
2023-02-04T06:16:59.904Z,6.90
2023-02-04T06:19:29.674Z,6.80
2023-02-04T06:21:58.048Z,6.80
2023-02-04T06:24:26.657Z,6.70
2023-02-04T06:26:54.863Z,6.60
2023-02-04T06:29:23.301Z,6.60
2023-02-04T06:31:51.633Z,6.50
2023-02-04T06:34:19.912Z,6.50
2023-02-04T06:36:49.496Z,6.40
2023-02-04T06:39:17.665Z,6.30
2023-02-04T06:41:45.834Z,6.30
2023-02-04T06:44:13.950Z,6.20
2023-02-04T06:46:42.304Z,6.20
2023-02-04T06:49:10.625Z,6.20
2023-02-04T06:51:38.856Z,6.10
2023-02-04T06:54:08.558Z,6.10
2023-02-04T06:56:36.762Z,6.10
2023-02-04T06:59:05.057Z,6.10
2023-02-04T07:01:33.721Z,6.10
2023-02-04T07:04:01.978Z,6.10
2023-02-04T07:06:30.311Z,6.10
2023-02-04T07:08:58.599Z,6.20
2023-02-04T07:11:28.179Z,6.20
2023-02-04T07:13:56.385Z,6.20
2023-02-04T07:16:24.606Z,6.30
2023-02-04T07:18:52.699Z,6.30
2023-02-04T07:21:21.084Z,6.30
2023-02-04T07:23:49.314Z,6.30
2023-02-04T07:26:17.628Z,6.40
2023-02-04T07:28:47.193Z,6.50
2023-02-04T07:31:15.693Z,6.50
2023-02-04T07:33:44.014Z,6.50
2023-02-04T07:36:13.788Z,6.50
2023-02-04T07:38:43.563Z,6.50
2023-02-04T07:41:11.911Z,6.50
2023-02-04T07:43:40.392Z,6.50
2023-02-04T07:46:10.120Z,6.50
2023-02-04T07:48:38.352Z,6.50
2023-02-04T07:51:06.958Z,6.50
2023-02-04T07:53:35.204Z,6.50
2023-02-04T07:56:03.868Z,6.40
2023-02-04T07:58:32.066Z,6.40
2023-02-04T08:01:01.224Z,6.30
2023-02-04T08:03:31.880Z,6.30
2023-02-04T08:06:01.582Z,6.40
2023-02-04T08:08:29.884Z,6.40
2023-02-04T08:10:58.800Z,6.40
2023-02-04T08:13:27.221Z,6.50
2023-02-04T08:15:55.481Z,6.50
2023-02-04T08:18:25.024Z,6.50
2023-02-04T08:20:54.663Z,6.50
2023-02-04T08:23:23.214Z,6.50
2023-02-04T08:25:51.714Z,6.50
2023-02-04T08:28:20.027Z,6.60
2023-02-04T08:30:48.640Z,6.60
2023-02-04T08:33:16.916Z,6.60
2023-02-04T08:35:45.361Z,6.70
2023-02-04T08:38:14.894Z,6.70
2023-02-04T08:40:44.190Z,6.80
2023-02-04T08:43:12.731Z,6.80
2023-02-04T08:45:41.471Z,6.90
2023-02-04T08:48:09.642Z,6.90
2023-02-04T08:50:39.147Z,7.00
2023-02-04T08:53:07.499Z,7.10
2023-02-04T08:55:37.048Z,7.10
2023-02-04T08:58:05.246Z,7.20
2023-02-04T09:00:33.750Z,7.20
2023-02-04T09:03:02.305Z,7.30
2023-02-04T09:05:30.459Z,7.30
2023-02-04T09:08:02.989Z,7.30
2023-02-04T09:10:38.451Z,7.30
2023-02-04T09:13:09.081Z,7.40
2023-02-04T09:15:37.290Z,7.50
2023-02-04T09:18:14.676Z,7.60
2023-02-04T09:20:42.965Z,7.50
2023-02-04T09:23:12.139Z,7.60
2023-02-04T09:25:43.242Z,7.60
2023-02-04T09:28:12.936Z,7.60
2023-02-04T09:30:42.558Z,7.60
2023-02-04T09:33:13.302Z,7.70
2023-02-04T09:35:42.293Z,7.80
2023-02-04T09:38:10.578Z,7.80
2023-02-04T09:40:45.961Z,7.90
2023-02-04T09:43:20.298Z,7.90
2023-02-04T09:46:03.549Z,8.00
2023-02-04T09:48:33.890Z,8.10
2023-02-04T09:51:09.701Z,8.20
2023-02-04T09:53:42.502Z,8.10
2023-02-04T09:56:16.196Z,8.10
2023-02-04T09:58:49.268Z,8.20
2023-02-04T10:01:20.750Z,8.30
2023-02-04T10:03:51.849Z,8.30
2023-02-04T10:06:24.416Z,8.30
2023-02-04T10:08:54.604Z,8.40
2023-02-04T10:11:28.273Z,8.60
2023-02-04T10:13:58.551Z,8.70
2023-02-04T10:16:32.006Z,9.00
2023-02-04T10:19:02.149Z,9.40
2023-02-04T10:21:36.718Z,9.40
2023-02-04T10:24:11.486Z,9.20
2023-02-04T10:26:41.131Z,8.90
2023-02-04T10:29:16.510Z,8.70
2023-02-04T10:31:47.646Z,8.70
2023-02-04T10:34:20.912Z,8.70
2023-02-04T10:36:51.878Z,8.70
2023-02-04T10:39:22.669Z,8.60
2023-02-04T10:41:53.863Z,8.70
2023-02-04T10:44:27.730Z,8.70
2023-02-04T10:47:01.143Z,8.60
2023-02-04T10:49:29.797Z,8.50
2023-02-04T10:51:58.201Z,8.40
2023-02-04T10:54:31.598Z,8.30
2023-02-04T10:57:18.907Z,8.40
2023-02-04T10:59:51.895Z,8.40
2023-02-04T11:02:44.251Z,8.40
2023-02-04T11:05:17.173Z,8.40
2023-02-04T11:07:48.091Z,8.60
2023-02-04T11:10:19.991Z,8.70
2023-02-04T11:13:02.815Z,8.90
2023-02-04T11:16:12.083Z,9.20
2023-02-04T11:18:50.236Z,9.30
2023-02-04T11:21:26.774Z,9.60
2023-02-04T11:24:07.654Z,10.20
2023-02-04T11:26:38.575Z,10.60
2023-02-04T11:29:34.839Z,10.50
2023-02-04T11:32:07.283Z,10.50
2023-02-04T11:34:49.497Z,10.50
2023-02-04T11:37:37.442Z,10.40
2023-02-04T11:40:25.792Z,10.30
2023-02-04T11:43:03.058Z,10.40
2023-02-04T11:45:36.494Z,10.50
2023-02-04T11:48:13.084Z,10.70
2023-02-04T11:50:41.686Z,10.90
2023-02-04T11:53:12.744Z,11.10
2023-02-04T11:55:47.912Z,11.40
2023-02-04T11:58:19.123Z,11.80
2023-02-04T12:00:49.157Z,11.90
2023-02-04T12:03:27.258Z,12.00
2023-02-04T12:05:56.092Z,12.10
2023-02-04T12:08:33.207Z,12.30
2023-02-04T12:11:07.499Z,12.00
2023-02-04T12:13:47.565Z,12.10
2023-02-04T12:16:17.790Z,12.20
2023-02-04T12:18:46.030Z,12.50
2023-02-04T12:21:14.838Z,13.10
2023-02-04T12:23:43.667Z,13.00
2023-02-04T12:26:13.328Z,13.60
2023-02-04T12:28:42.212Z,14.40
2023-02-04T12:31:10.872Z,14.80
2023-02-04T13:11:19.740Z,12.20
2023-02-04T13:13:50.607Z,12.00
2023-02-04T13:16:19.611Z,11.60
2023-02-04T13:18:52.946Z,11.30
2023-02-04T13:21:37.536Z,11.20
2023-02-04T13:24:09.458Z,11.10
2023-02-04T13:26:43.041Z,11.00
2023-02-04T13:29:11.805Z,10.90
2023-02-04T13:31:40.613Z,10.80
2023-02-04T13:34:08.899Z,10.70
2023-02-04T13:36:37.276Z,10.50
2023-02-04T13:39:07.248Z,10.20
2023-02-04T13:41:36.052Z,10.10
2023-02-04T13:44:04.836Z,10.00
2023-02-04T13:46:33.334Z,10.00
2023-02-04T13:49:01.540Z,10.00
2023-02-04T13:51:29.820Z,10.00
2023-02-04T13:53:58.379Z,10.10
2023-02-04T13:56:28.018Z,10.30
2023-02-04T13:58:56.495Z,10.50
2023-02-04T14:01:24.937Z,10.70
2023-02-04T14:03:53.299Z,10.70
2023-02-04T14:06:22.131Z,10.80
2023-02-04T14:08:58.103Z,10.80
2023-02-04T14:11:27.967Z,10.80
2023-02-04T14:13:56.580Z,10.90
2023-02-04T14:16:25.112Z,10.90
2023-02-04T14:18:53.476Z,10.90
2023-02-04T14:21:21.952Z,10.80
2023-02-04T14:23:50.156Z,10.90
2023-02-04T14:26:18.344Z,10.80
2023-02-04T14:28:48.167Z,10.80
2023-02-04T14:31:16.513Z,10.80
2023-02-04T14:33:44.841Z,10.60
2023-02-04T14:36:13.148Z,10.50
2023-02-04T14:38:41.458Z,10.30
2023-02-04T14:41:09.739Z,10.10
2023-02-04T14:43:38.109Z,10.00
2023-02-04T14:46:08.431Z,9.80
2023-02-04T14:48:36.659Z,9.60
2023-02-04T14:51:05.738Z,9.50
2023-02-04T14:53:34.082Z,9.40
2023-02-04T14:56:02.369Z,9.30
2023-02-04T14:58:30.917Z,9.20
2023-02-04T15:00:59.216Z,9.10
2023-02-04T15:03:28.828Z,9.00
2023-02-04T15:05:57.122Z,9.00
2023-02-04T15:08:25.770Z,9.00
2023-02-04T15:10:54.039Z,9.00
2023-02-04T15:14:11.703Z,9.00
2023-02-04T15:16:40.611Z,9.00
2023-02-04T15:19:10.206Z,9.00
2023-02-04T15:21:38.458Z,8.90
2023-02-04T15:24:07.011Z,8.90
2023-02-04T15:26:35.326Z,8.80
2023-02-04T15:29:03.860Z,8.70
2023-02-04T15:31:33.560Z,8.60
2023-02-04T15:34:02.061Z,8.40
2023-02-04T15:36:31.711Z,8.20
2023-02-04T15:38:59.934Z,8.10
2023-02-04T15:44:40.727Z,7.80
2023-02-04T15:47:09.122Z,7.60
2023-02-04T15:49:39.592Z,7.60
2023-02-04T15:52:19.475Z,7.50
2023-02-04T15:55:07.027Z,7.50
2023-02-04T15:57:35.411Z,7.40
2023-02-04T16:00:08.599Z,7.40
2023-02-04T16:02:37.076Z,7.40
2023-02-04T16:05:05.961Z,7.40
2023-02-04T16:07:38.902Z,7.40
2023-02-04T16:10:08.249Z,7.40
2023-02-04T16:12:36.808Z,7.40
2023-02-04T16:15:05.890Z,7.40
2023-02-04T16:17:34.291Z,7.40
2023-02-04T16:20:03.851Z,7.30
2023-02-04T16:22:39.570Z,7.20
2023-02-04T16:25:10.191Z,7.10
2023-02-04T16:27:38.485Z,7.10
2023-02-04T16:30:09.812Z,6.90
2023-02-04T16:32:40.227Z,6.90
2023-02-04T16:35:09.308Z,6.80
2023-02-04T16:37:37.700Z,6.60
2023-02-04T16:40:10.475Z,6.50
2023-02-04T16:43:32.982Z,6.40
2023-02-04T16:49:17.724Z,6.30
2023-02-04T16:51:46.050Z,6.20
2023-02-04T16:54:14.356Z,6.10
2023-02-04T16:56:43.925Z,6.00
2023-02-04T16:59:12.187Z,5.90
2023-02-04T17:01:42.500Z,5.80
2023-02-04T17:04:10.763Z,5.70
2023-02-04T17:06:40.198Z,5.60
2023-02-04T17:09:09.303Z,5.50
2023-02-04T17:11:37.611Z,5.50
2023-02-04T17:14:10.901Z,5.40
2023-02-04T17:16:39.277Z,5.40
2023-02-04T17:19:07.532Z,5.30
2023-02-04T17:21:36.100Z,5.20
2023-02-04T17:24:05.614Z,5.10
2023-02-04T17:26:37.884Z,5.10
2023-02-04T17:29:09.606Z,5.00
2023-02-04T17:31:38.352Z,5.00
2023-02-04T17:34:07.413Z,4.90
2023-02-04T17:36:36.653Z,4.90
2023-02-04T17:39:05.917Z,4.80
2023-02-04T17:41:34.516Z,4.70
2023-02-04T17:44:03.566Z,4.60
2023-02-04T17:46:34.322Z,4.60
2023-02-04T17:49:02.710Z,4.50
2023-02-04T17:51:30.921Z,4.40
2023-02-04T17:53:59.123Z,4.30
2023-02-04T17:56:27.890Z,4.30
2023-02-04T17:58:57.331Z,4.20
2023-02-04T18:01:25.932Z,4.20
2023-02-04T18:03:55.848Z,4.10
2023-02-04T18:06:28.393Z,4.10
2023-02-04T18:09:01.632Z,4.00
2023-02-04T18:11:37.222Z,3.90
2023-02-04T18:14:16.115Z,3.80
2023-02-04T18:16:45.495Z,3.80
2023-02-04T18:19:22.894Z,3.70
2023-02-04T18:21:51.465Z,3.70
2023-02-04T18:24:27.053Z,3.60
2023-02-04T18:26:57.778Z,3.50
2023-02-04T18:29:35.640Z,3.40
2023-02-04T18:32:10.044Z,3.40
2023-02-04T18:34:41.909Z,3.30
2023-02-04T18:37:29.725Z,3.20
2023-02-04T18:40:24.565Z,3.10
2023-02-04T18:43:04.750Z,3.00
2023-02-04T18:45:34.450Z,3.00
2023-02-04T18:48:48.084Z,2.90
2023-02-04T18:51:31.201Z,2.80
2023-02-04T18:54:52.410Z,2.70
2023-02-04T18:57:38.186Z,2.70
2023-02-04T19:00:34.454Z,2.60
2023-02-04T19:03:21.321Z,2.50
2023-02-04T19:05:50.282Z,2.50
2023-02-04T19:08:33.319Z,2.40
2023-02-04T19:11:01.868Z,2.30
2023-02-04T19:13:40.515Z,2.30
2023-02-04T19:16:23.305Z,2.30
2023-02-04T19:18:54.682Z,2.20
2023-02-04T19:21:29.593Z,2.20
2023-02-04T19:24:08.432Z,2.10
2023-02-04T19:26:40.150Z,2.10
2023-02-04T19:29:43.514Z,2.10
2023-02-04T19:32:27.447Z,2.00
2023-02-04T19:35:00.103Z,2.00
2023-02-04T19:37:36.327Z,2.00
2023-02-04T19:40:26.158Z,1.90
2023-02-04T19:42:56.285Z,1.80
2023-02-04T19:45:26.981Z,1.70
2023-02-04T19:47:57.541Z,1.70
2023-02-04T19:50:30.311Z,1.70
2023-02-04T19:53:03.246Z,1.60
2023-02-04T19:55:37.478Z,1.60
2023-02-04T19:58:18.857Z,1.60
2023-02-04T20:00:57.395Z,1.50
2023-02-04T20:03:42.468Z,1.50
2023-02-04T20:06:33.262Z,1.40
2023-02-04T20:09:05.553Z,1.30
2023-02-04T20:11:54.455Z,1.30
2023-02-04T20:14:48.450Z,1.30
2023-02-04T20:17:25.041Z,1.30
2023-02-04T20:19:53.390Z,1.30
2023-02-04T20:22:44.125Z,1.40
2023-02-04T20:25:41.018Z,1.50
2023-02-04T20:28:40.015Z,1.60
2023-02-04T20:31:25.220Z,1.60
2023-02-04T20:33:56.315Z,1.60
2023-02-04T20:36:38.523Z,1.70
2023-02-04T20:39:37.761Z,1.70
2023-02-04T20:42:25.383Z,1.70
2023-02-04T20:44:56.121Z,1.70
2023-02-04T20:47:26.106Z,1.70
2023-02-04T20:49:56.843Z,1.70
2023-02-04T20:53:11.200Z,1.70
2023-02-04T20:55:39.703Z,1.70
2023-02-04T20:58:20.433Z,1.70
2023-02-04T21:00:53.977Z,1.70
2023-02-04T21:03:26.890Z,1.70
2023-02-04T21:05:57.236Z,1.60
2023-02-04T21:08:44.807Z,1.60
2023-02-04T21:11:13.214Z,1.60
2023-02-04T21:13:41.729Z,1.60
2023-02-04T21:16:11.575Z,1.50
2023-02-04T21:18:39.792Z,1.50
2023-02-04T21:21:09.978Z,1.50
2023-02-04T21:23:39.769Z,1.40
2023-02-04T21:26:08.228Z,1.40
2023-02-04T21:28:36.570Z,1.30
2023-02-04T21:31:05.312Z,1.30
2023-02-04T21:33:35.003Z,1.20
2023-02-04T21:36:03.308Z,1.20
2023-02-04T21:38:31.614Z,1.20
2023-02-04T21:40:59.928Z,1.20
2023-02-04T21:43:28.269Z,1.20
2023-02-04T21:45:56.568Z,1.20
2023-02-04T21:48:25.543Z,1.30
2023-02-04T21:50:55.230Z,1.30
2023-02-04T21:53:23.754Z,1.30
2023-02-04T21:55:52.040Z,1.20
2023-02-04T21:58:20.326Z,1.20
2023-02-04T22:00:48.550Z,1.20
2023-02-04T22:03:17.561Z,1.10
2023-02-04T22:05:46.334Z,1.10
2023-02-04T22:08:15.950Z,1.10
2023-02-04T22:10:44.322Z,1.10
2023-02-04T22:13:12.618Z,1.10
2023-02-04T22:15:40.822Z,1.10
2023-02-04T22:18:09.351Z,1.00
2023-02-04T22:20:39.452Z,1.00
2023-02-04T22:23:08.037Z,1.00
2023-02-04T22:25:37.818Z,0.90
2023-02-04T22:28:06.117Z,0.90
2023-02-04T22:30:34.334Z,1.00
2023-02-04T22:33:02.675Z,1.00
2023-02-04T22:35:34.975Z,1.10
2023-02-04T22:38:03.872Z,1.10
2023-02-04T22:40:32.432Z,1.20
2023-02-04T22:43:02.097Z,1.20
2023-02-04T22:45:30.318Z,1.20
2023-02-04T22:47:58.598Z,1.30
2023-02-04T22:50:26.766Z,1.30
2023-02-04T22:52:54.994Z,1.30
2023-02-04T22:55:23.481Z,1.30
2023-02-04T22:57:51.780Z,1.40
2023-02-04T23:00:21.629Z,1.40
2023-02-04T23:02:49.908Z,1.40
2023-02-04T23:05:18.220Z,1.40
2023-02-04T23:07:46.443Z,1.40
2023-02-04T23:10:15.016Z,1.40
2023-02-04T23:12:43.231Z,1.40
2023-02-04T23:15:12.600Z,1.40
2023-02-04T23:17:42.247Z,1.40
2023-02-04T23:20:11.582Z,1.40
2023-02-04T23:22:40.021Z,1.50
2023-02-04T23:25:09.529Z,1.50
2023-02-04T23:27:37.974Z,1.50
2023-02-04T23:30:07.878Z,1.50
2023-02-04T23:32:36.119Z,1.50
2023-02-04T23:35:06.468Z,1.50
2023-02-04T23:37:35.277Z,1.50
2023-02-04T23:40:07.504Z,1.50
2023-02-04T23:42:35.736Z,1.60
2023-02-04T23:45:04.238Z,1.60
2023-02-04T23:47:32.466Z,1.60
2023-02-04T23:50:00.612Z,1.60
2023-02-04T23:52:30.206Z,1.60
2023-02-04T23:54:58.405Z,1.60
2023-02-04T23:57:26.931Z,1.70
2023-02-04T23:59:55.073Z,1.70
